createdAt,value
2019-02-06T00:00:27.980Z,946.02
2019-02-06T00:01:29.031Z,946.07
2019-02-06T00:02:29.199Z,945.96
2019-02-06T00:03:29.955Z,946.05
2019-02-06T00:04:31.122Z,945.99
2019-02-06T00:05:31.621Z,946.05
2019-02-06T00:06:32.392Z,945.96
2019-02-06T00:07:32.984Z,945.98
2019-02-06T00:08:33.973Z,946.01
2019-02-06T00:09:34.756Z,946
2019-02-06T00:10:35.278Z,946.02
2019-02-06T00:11:36.554Z,946.02
2019-02-06T00:12:37.725Z,946.01
2019-02-06T00:13:38.222Z,946.04
2019-02-06T00:14:38.619Z,946.03
2019-02-06T00:15:39.543Z,946.04
2019-02-06T00:16:40.199Z,946.04
2019-02-06T00:17:40.990Z,946.03
2019-02-06T00:18:42.054Z,945.99
2019-02-06T00:19:42.804Z,945.98
2019-02-06T00:20:43.788Z,945.92
2019-02-06T00:21:44.789Z,945.9
2019-02-06T00:22:44.965Z,945.93
2019-02-06T00:23:45.995Z,945.9
2019-02-06T00:24:46.232Z,945.87
2019-02-06T00:25:47.378Z,945.86
2019-02-06T00:26:47.946Z,945.86
2019-02-06T00:27:48.864Z,945.87
2019-02-06T00:28:49.947Z,945.86
2019-02-06T00:29:50.938Z,945.81
2019-02-06T00:30:51.357Z,945.85
2019-02-06T00:31:52.074Z,945.84
2019-02-06T00:32:53.548Z,945.82
2019-02-06T00:33:53.956Z,945.85
2019-02-06T00:34:54.665Z,945.8
2019-02-06T00:35:54.889Z,945.82
2019-02-06T00:36:55.596Z,945.83
2019-02-06T00:37:56.096Z,945.83
2019-02-06T00:38:56.804Z,945.82
2019-02-06T00:39:57.788Z,945.84
2019-02-06T00:40:58.842Z,945.82
2019-02-06T00:41:59.776Z,945.82
2019-02-06T00:43:00.876Z,945.85
2019-02-06T00:44:01.134Z,945.8
2019-02-06T00:45:01.864Z,945.81
2019-02-06T00:46:02.124Z,945.83
2019-02-06T00:47:03.381Z,945.84
2019-02-06T00:48:04.241Z,945.83
2019-02-06T00:49:04.972Z,945.89
2019-02-06T00:50:05.771Z,945.89
2019-02-06T00:51:06.189Z,945.91
2019-02-06T00:52:06.627Z,945.97
2019-02-06T00:53:07.346Z,945.86
2019-02-06T00:54:08.056Z,945.97
2019-02-06T00:55:09.048Z,945.95
2019-02-06T00:56:09.477Z,945.89
2019-02-06T00:57:10.625Z,945.89
2019-02-06T00:58:11.843Z,945.83
2019-02-06T00:59:12.443Z,945.88
2019-02-06T01:00:12.884Z,945.87
2019-02-06T01:01:13.299Z,945.79
2019-02-06T01:02:14.547Z,945.78
2019-02-06T01:03:15.694Z,945.75
2019-02-06T01:04:16.127Z,945.78
2019-02-06T01:04:28.125Z,945.79
2019-02-06T01:05:41.251Z,945.74
2019-02-06T01:06:41.967Z,945.76
2019-02-06T01:07:42.377Z,945.65
2019-02-06T01:08:42.906Z,945.68
2019-02-06T01:09:43.825Z,945.65
2019-02-06T01:10:44.749Z,945.66
2019-02-06T01:11:45.887Z,945.66
2019-02-06T01:12:47.143Z,945.66
2019-02-06T01:13:47.560Z,945.68
2019-02-06T01:14:47.990Z,945.65
2019-02-06T01:15:48.685Z,945.66
2019-02-06T01:16:48.867Z,945.68
2019-02-06T01:17:50.328Z,945.68
2019-02-06T01:18:51.041Z,945.7
2019-02-06T01:19:51.273Z,945.72
2019-02-06T01:20:51.687Z,945.7
2019-02-06T01:21:52.683Z,945.71
2019-02-06T01:22:53.666Z,945.68
2019-02-06T01:23:54.090Z,945.66
2019-02-06T01:24:55.498Z,945.67
2019-02-06T01:25:56.082Z,945.64
2019-02-06T01:26:57.030Z,945.67
2019-02-06T01:27:57.799Z,945.62
2019-02-06T01:28:58.774Z,945.68
2019-02-06T01:29:59.205Z,945.63
2019-02-06T01:31:00.463Z,945.66
2019-02-06T01:32:00.877Z,945.66
2019-02-06T01:33:01.579Z,945.65
2019-02-06T01:34:02.301Z,945.63
2019-02-06T01:35:02.856Z,945.65
2019-02-06T01:36:03.615Z,945.65
2019-02-06T01:37:04.717Z,945.62
2019-02-06T01:38:05.440Z,945.6
2019-02-06T01:39:05.892Z,945.59
2019-02-06T01:40:06.580Z,945.57
2019-02-06T01:41:06.847Z,945.57
2019-02-06T01:42:07.195Z,945.59
2019-02-06T01:43:08.597Z,945.6
2019-02-06T01:44:09.687Z,945.59
2019-02-06T01:45:10.401Z,945.68
2019-02-06T01:46:11.108Z,945.65
2019-02-06T01:47:11.666Z,945.71
2019-02-06T01:48:12.798Z,945.69
2019-02-06T01:49:13.229Z,945.7
2019-02-06T01:50:13.922Z,945.66
2019-02-06T01:51:15.358Z,945.66
2019-02-06T01:52:16.571Z,945.65
2019-02-06T01:53:17.003Z,945.61
2019-02-06T01:54:17.694Z,945.59
2019-02-06T01:55:18.842Z,945.6
2019-02-06T01:56:19.263Z,945.56
2019-02-06T01:57:20.384Z,945.53
2019-02-06T01:58:20.627Z,945.56
2019-02-06T01:59:21.773Z,945.53
2019-02-06T02:00:22.241Z,945.54
2019-02-06T02:01:23.254Z,945.53
2019-02-06T02:02:23.662Z,945.51
2019-02-06T02:03:24.801Z,945.47
2019-02-06T02:04:25.291Z,945.49
2019-02-06T02:05:25.816Z,945.44
2019-02-06T02:06:26.966Z,945.47
2019-02-06T02:07:27.359Z,945.49
2019-02-06T02:08:27.777Z,945.5
2019-02-06T02:09:28.228Z,945.46
2019-02-06T02:10:29.480Z,945.49
2019-02-06T02:11:29.887Z,945.45
2019-02-06T02:12:30.579Z,945.51
2019-02-06T02:13:31.268Z,945.47
2019-02-06T02:14:31.678Z,945.5
2019-02-06T02:15:32.092Z,945.44
2019-02-06T02:16:32.912Z,945.47
2019-02-06T02:17:34.189Z,945.43
2019-02-06T02:18:35.336Z,945.42
2019-02-06T02:19:35.762Z,945.44
2019-02-06T02:20:36.181Z,945.47
2019-02-06T02:21:36.596Z,945.42
2019-02-06T02:22:37.003Z,945.43
2019-02-06T02:23:38.005Z,945.43
2019-02-06T02:24:39.083Z,945.44
2019-02-06T02:25:39.598Z,945.35
2019-02-06T02:26:39.847Z,945.43
2019-02-06T02:27:40.686Z,945.39
2019-02-06T02:28:41.856Z,945.35
2019-02-06T02:29:42.272Z,945.31
2019-02-06T02:30:42.964Z,945.27
2019-02-06T02:31:43.824Z,945.35
2019-02-06T02:32:44.802Z,945.31
2019-02-06T02:33:45.515Z,945.32
2019-02-06T02:34:45.716Z,945.25
2019-02-06T02:35:46.688Z,945.25
2019-02-06T02:36:47.780Z,945.17
2019-02-06T02:37:48.511Z,945.17
2019-02-06T02:38:48.791Z,945.15
2019-02-06T02:39:49.597Z,945.16
2019-02-06T02:40:50.567Z,945.16
2019-02-06T02:41:51.545Z,945.18
2019-02-06T02:42:52.221Z,945.13
2019-02-06T02:43:53.202Z,945.14
2019-02-06T02:44:54.483Z,945.15
2019-02-06T02:45:55.461Z,945.15
2019-02-06T02:46:56.440Z,945.16
2019-02-06T02:47:57.871Z,945.19
2019-02-06T02:48:58.560Z,945.14
2019-02-06T02:49:59.279Z,945.16
2019-02-06T02:51:00.272Z,945.15
2019-02-06T02:52:01.329Z,945.12
2019-02-06T02:53:02.144Z,945.14
2019-02-06T02:54:03.402Z,945.12
2019-02-06T02:55:04.386Z,945.09
2019-02-06T02:56:05.660Z,945.1
2019-02-06T02:57:06.360Z,945.09
2019-02-06T02:58:07.078Z,945.09
2019-02-06T02:59:07.886Z,945.02
2019-02-06T03:00:08.909Z,945.05
2019-02-06T03:01:09.631Z,945.08
2019-02-06T03:02:10.924Z,945.08
2019-02-06T03:03:11.644Z,945.08
2019-02-06T03:04:12.343Z,945.08
2019-02-06T03:05:13.109Z,945.08
2019-02-06T03:06:13.918Z,945.07
2019-02-06T03:06:28.683Z,945.07
2019-02-06T03:07:28.896Z,945.04
2019-02-06T03:08:29.793Z,945.04
2019-02-06T03:09:30.809Z,945.01
2019-02-06T03:10:31.496Z,945.06
2019-02-06T03:11:32.019Z,945.04
2019-02-06T03:12:33.078Z,945
2019-02-06T03:13:34.059Z,944.98
2019-02-06T03:14:34.499Z,944.98
2019-02-06T03:15:35.473Z,945.01
2019-02-06T03:16:35.720Z,944.99
2019-02-06T03:17:36.685Z,944.95
2019-02-06T03:18:37.982Z,944.97
2019-02-06T03:19:38.448Z,944.97
2019-02-06T03:20:39.267Z,944.95
2019-02-06T03:21:39.698Z,944.89
2019-02-06T03:22:40.855Z,944.93
2019-02-06T03:23:41.266Z,944.9
2019-02-06T03:24:42.246Z,944.89
2019-02-06T03:25:42.686Z,944.89
2019-02-06T03:26:43.715Z,944.87
2019-02-06T03:27:45.138Z,944.86
2019-02-06T03:28:45.442Z,944.87
2019-02-06T03:29:45.860Z,944.89
2019-02-06T03:30:46.567Z,944.88
2019-02-06T03:31:47.441Z,944.89
2019-02-06T03:32:49.092Z,944.85
2019-02-06T03:33:49.247Z,944.89
2019-02-06T03:34:49.942Z,944.85
2019-02-06T03:35:50.961Z,944.85
2019-02-06T03:36:51.464Z,944.86
2019-02-06T03:37:51.886Z,944.87
2019-02-06T03:38:52.869Z,944.86
2019-02-06T03:39:53.572Z,944.85
2019-02-06T03:40:54.554Z,944.86
2019-02-06T03:41:55.259Z,944.82
2019-02-06T03:42:55.677Z,944.83
2019-02-06T03:43:57.017Z,944.86
2019-02-06T03:44:58.066Z,944.81
2019-02-06T03:45:59.048Z,944.83
2019-02-06T03:47:00.320Z,944.83
2019-02-06T03:48:01.308Z,944.84
2019-02-06T03:49:02.297Z,944.84
2019-02-06T03:50:02.708Z,944.8
2019-02-06T03:51:03.437Z,944.81
2019-02-06T03:52:04.104Z,944.75
2019-02-06T03:53:05.272Z,944.81
2019-02-06T03:54:05.486Z,944.75
2019-02-06T03:55:06.640Z,944.8
2019-02-06T03:56:07.212Z,944.78
2019-02-06T03:57:08.193Z,944.8
2019-02-06T03:58:09.034Z,944.8
2019-02-06T03:59:09.310Z,944.86
2019-02-06T04:00:10.066Z,944.82
2019-02-06T04:01:11.898Z,944.82
2019-02-06T04:02:12.441Z,944.82
2019-02-06T04:03:13.509Z,944.82
2019-02-06T04:04:14.508Z,944.83
2019-02-06T04:05:15.252Z,944.85
2019-02-06T04:06:15.950Z,944.88
2019-02-06T04:07:16.242Z,944.85
2019-02-06T04:08:17.566Z,944.86
2019-02-06T04:09:18.428Z,944.86
2019-02-06T04:10:19.739Z,944.83
2019-02-06T04:11:20.446Z,944.81
2019-02-06T04:12:20.868Z,944.82
2019-02-06T04:13:21.558Z,944.85
2019-02-06T04:14:22.691Z,944.8
2019-02-06T04:15:23.107Z,944.82
2019-02-06T04:16:23.807Z,944.81
2019-02-06T04:17:25.020Z,944.84
2019-02-06T04:18:26.000Z,944.86
2019-02-06T04:19:26.504Z,944.9
2019-02-06T04:20:27.092Z,944.94
2019-02-06T04:21:27.921Z,944.92
2019-02-06T04:22:28.661Z,944.87
2019-02-06T04:23:29.671Z,944.88
2019-02-06T04:24:30.106Z,944.9
2019-02-06T04:25:30.870Z,944.93
2019-02-06T04:26:31.878Z,944.9
2019-02-06T04:27:32.702Z,944.91
2019-02-06T04:28:33.674Z,944.9
2019-02-06T04:29:34.665Z,944.91
2019-02-06T04:30:34.962Z,944.89
2019-02-06T04:31:35.233Z,944.89
2019-02-06T04:32:35.665Z,944.94
2019-02-06T04:33:36.647Z,944.88
2019-02-06T04:34:37.813Z,944.9
2019-02-06T04:35:38.497Z,944.95
2019-02-06T04:36:39.112Z,944.96
2019-02-06T04:37:39.799Z,944.96
2019-02-06T04:38:41.188Z,944.96
2019-02-06T04:39:41.879Z,944.99
2019-02-06T04:40:42.640Z,944.98
2019-02-06T04:41:43.350Z,945
2019-02-06T04:42:44.054Z,944.92
2019-02-06T04:43:45.724Z,945.02
2019-02-06T04:44:46.242Z,945.06
2019-02-06T04:45:46.767Z,945.04
2019-02-06T04:46:47.191Z,945.05
2019-02-06T04:47:48.185Z,945.1
2019-02-06T04:48:49.503Z,945.14
2019-02-06T04:49:50.587Z,945.1
2019-02-06T04:50:51.665Z,945.1
2019-02-06T04:51:52.687Z,945.13
2019-02-06T04:52:53.606Z,945.14
2019-02-06T04:53:54.150Z,945.17
2019-02-06T04:54:54.673Z,945.22
2019-02-06T04:55:56.100Z,945.26
2019-02-06T04:56:56.801Z,945.25
2019-02-06T04:57:57.529Z,945.26
2019-02-06T04:58:58.197Z,945.22
2019-02-06T04:59:59.364Z,945.2
2019-02-06T05:00:59.925Z,945.21
2019-02-06T05:02:00.871Z,945.2
2019-02-06T05:03:01.487Z,945.21
2019-02-06T05:04:02.746Z,945.27
2019-02-06T05:05:03.028Z,945.24
2019-02-06T05:06:03.264Z,945.25
2019-02-06T05:07:04.004Z,945.29
2019-02-06T05:07:18.907Z,945.28
2019-02-06T05:08:16.695Z,945.3
2019-02-06T05:09:17.402Z,945.27
2019-02-06T05:10:18.774Z,945.28
2019-02-06T05:11:19.722Z,945.26
2019-02-06T05:12:20.265Z,945.29
2019-02-06T05:13:20.972Z,945.28
2019-02-06T05:14:21.509Z,945.25
2019-02-06T05:15:21.928Z,945.24
2019-02-06T05:16:23.340Z,945.23
2019-02-06T05:17:23.741Z,945.23
2019-02-06T05:18:25.027Z,945.23
2019-02-06T05:19:25.652Z,945.2
2019-02-06T05:20:26.789Z,945.17
2019-02-06T05:21:27.820Z,945.2
2019-02-06T05:22:28.371Z,945.23
2019-02-06T05:23:28.913Z,945.21
2019-02-06T05:24:29.324Z,945.2
2019-02-06T05:25:29.579Z,945.17
2019-02-06T05:26:30.551Z,945.17
2019-02-06T05:27:31.651Z,945.17
2019-02-06T05:28:32.451Z,945.18
2019-02-06T05:29:32.912Z,945.15
2019-02-06T05:30:34.334Z,945.13
2019-02-06T05:31:35.430Z,945.14
2019-02-06T05:32:36.127Z,945.16
2019-02-06T05:32:48.131Z,945.18
2019-02-06T05:33:48.322Z,945.14
2019-02-06T05:34:49.132Z,945.16
2019-02-06T05:35:50.180Z,945.15
2019-02-06T05:36:51.449Z,945.12
2019-02-06T05:37:52.433Z,945.05
2019-02-06T05:38:52.697Z,945.09
2019-02-06T05:39:53.796Z,945.09
2019-02-06T05:40:54.773Z,945.08
2019-02-06T05:41:55.291Z,945.08
2019-02-06T05:42:55.993Z,945.04
2019-02-06T05:43:56.767Z,945.08
2019-02-06T05:44:57.480Z,945.06
2019-02-06T05:45:58.639Z,945.08
2019-02-06T05:46:58.896Z,945.07
2019-02-06T05:47:59.955Z,945.11
2019-02-06T05:49:01.278Z,945.12
2019-02-06T05:50:01.847Z,945.11
2019-02-06T05:51:03.011Z,945.11
2019-02-06T05:52:03.455Z,945.12
2019-02-06T05:53:04.164Z,945.12
2019-02-06T05:54:04.753Z,945.14
2019-02-06T05:55:05.805Z,945.11
2019-02-06T05:56:06.508Z,945.12
2019-02-06T05:57:07.507Z,945.17
2019-02-06T05:58:08.790Z,945.17
2019-02-06T05:59:09.324Z,945.2
2019-02-06T06:00:09.747Z,945.21
2019-02-06T06:01:10.289Z,945.23
2019-02-06T06:02:11.592Z,945.17
2019-02-06T06:03:12.156Z,945.17
2019-02-06T06:04:12.728Z,945.18
2019-02-06T06:05:13.439Z,945.17
2019-02-06T06:06:14.405Z,945.14
2019-02-06T06:07:15.901Z,945.13
2019-02-06T06:08:16.896Z,945.12
2019-02-06T06:09:18.036Z,945.12
2019-02-06T06:10:18.771Z,945.14
2019-02-06T06:11:18.988Z,945.09
2019-02-06T06:12:19.416Z,945.15
2019-02-06T06:13:20.742Z,945.15
2019-02-06T06:14:21.618Z,945.15
2019-02-06T06:15:22.604Z,945.21
2019-02-06T06:16:23.023Z,945.19
2019-02-06T06:17:24.046Z,945.22
2019-02-06T06:18:24.852Z,945.21
2019-02-06T06:19:25.830Z,945.21
2019-02-06T06:20:26.757Z,945.25
2019-02-06T06:21:27.010Z,945.18
2019-02-06T06:22:27.731Z,945.19
2019-02-06T06:23:28.715Z,945.2
2019-02-06T06:24:29.675Z,945.14
2019-02-06T06:25:30.429Z,945.12
2019-02-06T06:26:31.115Z,945.17
2019-02-06T06:27:31.833Z,945.14
2019-02-06T06:28:32.375Z,945.14
2019-02-06T06:29:32.974Z,945.15
2019-02-06T06:30:33.406Z,945.14
2019-02-06T06:31:34.392Z,945.17
2019-02-06T06:32:35.650Z,945.18
2019-02-06T06:33:36.441Z,945.18
2019-02-06T06:34:36.876Z,945.17
2019-02-06T06:35:37.408Z,945.22
2019-02-06T06:36:37.675Z,945.18
2019-02-06T06:37:42.256Z,945.2
2019-02-06T06:37:57.911Z,945.19
2019-02-06T06:38:03.001Z,945.22
2019-02-06T06:39:03.094Z,945.21
2019-02-06T06:40:03.268Z,945.21
2019-02-06T06:41:04.271Z,945.19
2019-02-06T06:42:04.567Z,945.26
2019-02-06T06:43:05.018Z,945.21
2019-02-06T06:44:05.578Z,945.24
2019-02-06T06:45:06.002Z,945.28
2019-02-06T06:46:06.976Z,945.24
2019-02-06T06:47:08.053Z,945.25
2019-02-06T06:48:08.817Z,945.28
2019-02-06T06:49:09.321Z,945.18
2019-02-06T06:50:09.572Z,945.22
2019-02-06T06:51:10.544Z,945.25
2019-02-06T06:52:11.537Z,945.3
2019-02-06T06:53:12.236Z,945.28
2019-02-06T06:54:12.777Z,945.27
2019-02-06T06:55:13.313Z,945.29
2019-02-06T06:56:14.231Z,945.31
2019-02-06T06:57:14.953Z,945.31
2019-02-06T06:58:15.376Z,945.33
2019-02-06T06:59:16.222Z,945.36
2019-02-06T07:00:16.507Z,945.4
2019-02-06T07:01:17.509Z,945.37
2019-02-06T07:02:18.653Z,945.39
2019-02-06T07:03:19.182Z,945.37
2019-02-06T07:04:19.433Z,945.39
2019-02-06T07:05:20.397Z,945.41
2019-02-06T07:06:20.869Z,945.37
2019-02-06T07:07:21.600Z,945.43
2019-02-06T07:08:21.921Z,945.42
2019-02-06T07:09:22.806Z,945.43
2019-02-06T07:10:23.790Z,945.42
2019-02-06T07:11:25.065Z,945.42
2019-02-06T07:12:26.552Z,945.45
2019-02-06T07:13:27.623Z,945.45
2019-02-06T07:14:28.043Z,945.48
2019-02-06T07:15:28.860Z,945.49
2019-02-06T07:16:29.576Z,945.48
2019-02-06T07:17:30.822Z,945.5
2019-02-06T07:18:31.949Z,945.44
2019-02-06T07:19:32.298Z,945.55
2019-02-06T07:20:33.697Z,945.56
2019-02-06T07:21:34.466Z,945.56
2019-02-06T07:22:35.406Z,945.6
2019-02-06T07:23:36.294Z,945.6
2019-02-06T07:24:36.958Z,945.58
2019-02-06T07:25:37.660Z,945.6
2019-02-06T07:26:38.797Z,945.6
2019-02-06T07:27:39.533Z,945.61
2019-02-06T07:28:40.248Z,945.6
2019-02-06T07:29:41.430Z,945.59
2019-02-06T07:30:41.734Z,945.61
2019-02-06T07:31:42.706Z,945.68
2019-02-06T07:32:43.133Z,945.65
2019-02-06T07:33:44.271Z,945.68
2019-02-06T07:34:44.690Z,945.66
2019-02-06T07:35:45.666Z,945.66
2019-02-06T07:36:46.357Z,945.7
2019-02-06T07:37:47.444Z,945.67
2019-02-06T07:38:47.946Z,945.69
2019-02-06T07:39:48.781Z,945.67
2019-02-06T07:40:49.752Z,945.71
2019-02-06T07:41:50.734Z,945.78
2019-02-06T07:42:51.717Z,945.75
2019-02-06T07:43:52.430Z,945.84
2019-02-06T07:44:54.522Z,945.88
2019-02-06T07:45:55.341Z,945.94
2019-02-06T07:46:57.150Z,945.95
2019-02-06T07:47:10.523Z,945.92
2019-02-06T07:47:24.161Z,945.98
2019-02-06T07:48:24.771Z,945.91
2019-02-06T07:49:25.198Z,945.97
2019-02-06T07:50:26.742Z,945.92
2019-02-06T07:51:27.680Z,945.92
2019-02-06T07:52:28.102Z,945.89
2019-02-06T07:53:28.366Z,945.91
2019-02-06T07:54:28.765Z,945.9
2019-02-06T07:55:29.197Z,945.93
2019-02-06T07:56:29.915Z,945.96
2019-02-06T07:57:30.338Z,945.97
2019-02-06T07:58:31.043Z,946.04
2019-02-06T07:59:31.839Z,945.99
2019-02-06T08:00:33.003Z,946.03
2019-02-06T08:01:33.555Z,945.98
2019-02-06T08:02:34.635Z,945.99
2019-02-06T08:03:36.092Z,946.02
2019-02-06T08:04:37.073Z,946.02
2019-02-06T08:05:38.923Z,946.03
2019-02-06T08:06:39.888Z,945.98
2019-02-06T08:07:40.879Z,946.04
2019-02-06T08:08:41.996Z,946.04
2019-02-06T08:09:42.980Z,946.09
2019-02-06T08:10:43.709Z,946.06
2019-02-06T08:11:44.525Z,946.1
2019-02-06T08:12:45.977Z,946.05
2019-02-06T08:13:46.967Z,945.96
2019-02-06T08:14:47.420Z,945.97
2019-02-06T08:15:48.342Z,945.92
2019-02-06T08:16:49.204Z,945.89
2019-02-06T08:17:50.478Z,945.89
2019-02-06T08:18:51.202Z,945.9
2019-02-06T08:19:51.914Z,945.89
2019-02-06T08:20:52.361Z,945.83
2019-02-06T08:21:53.531Z,945.82
2019-02-06T08:22:54.356Z,945.78
2019-02-06T08:23:55.229Z,945.78
2019-02-06T08:24:55.917Z,945.76
2019-02-06T08:25:56.340Z,945.72
2019-02-06T08:26:56.763Z,945.73
2019-02-06T08:27:57.734Z,945.76
2019-02-06T08:28:58.061Z,945.77
2019-02-06T08:29:58.615Z,945.71
2019-02-06T08:30:59.962Z,945.78
2019-02-06T08:32:00.230Z,945.75
2019-02-06T08:33:00.663Z,945.73
2019-02-06T08:34:01.742Z,945.71
2019-02-06T08:35:02.464Z,945.71
2019-02-06T08:36:03.003Z,945.69
2019-02-06T08:37:04.428Z,945.61
2019-02-06T08:38:05.000Z,945.67
2019-02-06T08:38:49.724Z,945.63
2019-02-06T08:39:00.868Z,945.64
2019-02-06T08:40:01.612Z,945.7
2019-02-06T08:41:02.606Z,945.72
2019-02-06T08:42:04.411Z,945.78
2019-02-06T08:43:04.874Z,945.78
2019-02-06T08:44:05.604Z,945.76
2019-02-06T08:45:05.926Z,945.81
2019-02-06T08:46:06.576Z,945.72
2019-02-06T08:47:07.691Z,945.78
2019-02-06T08:48:08.140Z,945.76
2019-02-06T08:49:11.365Z,945.82
2019-02-06T08:50:12.059Z,945.84
2019-02-06T08:51:13.208Z,945.82
2019-02-06T08:52:13.629Z,945.82
2019-02-06T08:53:14.334Z,945.84
2019-02-06T08:54:15.160Z,945.86
2019-02-06T08:55:16.320Z,945.84
2019-02-06T08:56:17.300Z,945.85
2019-02-06T08:57:18.094Z,945.81
2019-02-06T08:58:19.519Z,945.84
2019-02-06T08:59:20.630Z,945.85
2019-02-06T09:00:21.622Z,945.81
2019-02-06T09:01:22.483Z,945.79
2019-02-06T09:02:23.153Z,945.78
2019-02-06T09:03:23.854Z,945.78
2019-02-06T09:04:24.560Z,945.71
2019-02-06T09:05:25.544Z,945.68
2019-02-06T09:06:27.026Z,945.65
2019-02-06T09:07:28.152Z,945.66
2019-02-06T09:08:28.845Z,945.6
2019-02-06T09:09:29.276Z,945.66
2019-02-06T09:10:30.153Z,945.62
2019-02-06T09:11:30.921Z,945.59
2019-02-06T09:12:32.342Z,945.64
2019-02-06T09:13:33.045Z,945.63
2019-02-06T09:14:33.476Z,945.59
2019-02-06T09:15:34.742Z,945.57
2019-02-06T09:16:35.379Z,945.6
2019-02-06T09:17:36.536Z,945.58
2019-02-06T09:18:37.702Z,945.57
2019-02-06T09:19:38.190Z,945.55
2019-02-06T09:20:38.916Z,945.56
2019-02-06T09:21:39.630Z,945.55
2019-02-06T09:22:40.645Z,945.53
2019-02-06T09:23:42.063Z,945.53
2019-02-06T09:24:42.361Z,945.5
2019-02-06T09:25:43.346Z,945.5
2019-02-06T09:26:44.374Z,945.55
2019-02-06T09:27:45.097Z,945.5
2019-02-06T09:28:46.245Z,945.52
2019-02-06T09:29:46.676Z,945.54
2019-02-06T09:30:47.415Z,945.55
2019-02-06T09:31:49.994Z,945.55
2019-02-06T09:32:00.446Z,945.57
2019-02-06T09:32:12.400Z,945.55
2019-02-06T09:33:12.920Z,945.55
2019-02-06T09:34:13.908Z,945.57
2019-02-06T09:35:14.640Z,945.57
2019-02-06T09:36:15.413Z,945.54
2019-02-06T09:37:16.139Z,945.56
2019-02-06T09:38:16.606Z,945.58
2019-02-06T09:39:17.307Z,945.55
2019-02-06T09:40:18.019Z,945.62
2019-02-06T09:41:19.177Z,945.56
2019-02-06T09:42:20.602Z,945.58
2019-02-06T09:43:21.814Z,945.57
2019-02-06T09:44:22.245Z,945.6
2019-02-06T09:45:23.242Z,945.6
2019-02-06T09:46:23.716Z,945.56
2019-02-06T09:47:24.168Z,945.56
2019-02-06T09:48:24.635Z,945.57
2019-02-06T09:49:26.062Z,945.56
2019-02-06T09:50:27.315Z,945.55
2019-02-06T09:51:28.086Z,945.58
2019-02-06T09:52:29.813Z,945.58
2019-02-06T09:53:30.615Z,945.6
2019-02-06T09:54:30.890Z,945.68
2019-02-06T09:55:31.593Z,945.71
2019-02-06T09:56:32.744Z,945.68
2019-02-06T09:57:35.868Z,945.77
2019-02-06T09:58:36.597Z,945.81
2019-02-06T09:59:37.178Z,945.78
2019-02-06T10:00:38.169Z,945.83
2019-02-06T10:01:40.576Z,945.82
2019-02-06T10:01:52.792Z,945.85
2019-02-06T10:02:53.098Z,945.83
2019-02-06T10:03:53.497Z,945.84
2019-02-06T10:04:54.722Z,945.9
2019-02-06T10:05:55.133Z,945.92
2019-02-06T10:06:56.283Z,945.94
2019-02-06T10:07:57.291Z,945.98
2019-02-06T10:08:57.578Z,945.93
2019-02-06T10:09:59.606Z,945.95
2019-02-06T10:10:11.363Z,945.93
2019-02-06T10:10:22.601Z,945.93
2019-02-06T10:11:23.278Z,945.95
2019-02-06T10:12:24.449Z,946
2019-02-06T10:13:24.586Z,945.98
2019-02-06T10:14:26.171Z,945.94
2019-02-06T10:15:27.142Z,945.94
2019-02-06T10:16:28.688Z,945.95
2019-02-06T10:16:39.661Z,945.96
2019-02-06T10:17:40.633Z,946
2019-02-06T10:18:41.169Z,945.99
2019-02-06T10:19:42.904Z,945.97
2019-02-06T10:20:43.626Z,945.95
2019-02-06T10:21:44.182Z,945.95
2019-02-06T10:22:44.892Z,945.97
2019-02-06T10:23:45.873Z,946
2019-02-06T10:24:46.717Z,945.95
2019-02-06T10:25:47.288Z,946.02
2019-02-06T10:26:47.765Z,945.98
2019-02-06T10:27:48.450Z,945.98
2019-02-06T10:28:49.184Z,946.03
2019-02-06T10:29:49.625Z,946.02
2019-02-06T10:30:50.343Z,946.03
2019-02-06T10:31:52.287Z,946.05
2019-02-06T10:32:52.337Z,946
2019-02-06T10:33:53.120Z,945.96
2019-02-06T10:34:53.403Z,945.97
2019-02-06T10:35:54.119Z,945.97
2019-02-06T10:36:54.827Z,945.99
2019-02-06T10:37:55.332Z,945.96
2019-02-06T10:38:56.488Z,945.95
2019-02-06T10:39:59.367Z,945.98
2019-02-06T10:41:00.080Z,945.97
2019-02-06T10:42:01.491Z,946
2019-02-06T10:43:02.537Z,945.98
2019-02-06T10:44:03.111Z,945.89
2019-02-06T10:45:03.987Z,945.87
2019-02-06T10:46:05.139Z,945.82
2019-02-06T10:47:05.883Z,945.87
2019-02-06T10:48:06.174Z,945.83
2019-02-06T10:49:06.926Z,945.85
2019-02-06T10:50:07.750Z,945.8
2019-02-06T10:51:08.463Z,945.82
2019-02-06T10:52:09.024Z,945.81
2019-02-06T10:53:09.744Z,945.8
2019-02-06T10:54:09.962Z,945.83
2019-02-06T10:55:11.111Z,945.79
2019-02-06T10:56:12.299Z,945.8
2019-02-06T10:57:13.111Z,945.79
2019-02-06T10:58:13.781Z,945.78
2019-02-06T10:59:15.441Z,945.79
2019-02-06T11:00:15.724Z,945.77
2019-02-06T11:01:16.033Z,945.75
2019-02-06T11:02:18.477Z,945.71
2019-02-06T11:03:19.102Z,945.72
2019-02-06T11:04:20.146Z,945.69
2019-02-06T11:05:21.196Z,945.69
2019-02-06T11:06:21.902Z,945.65
2019-02-06T11:07:22.436Z,945.66
2019-02-06T11:08:23.016Z,945.66
2019-02-06T11:09:24.019Z,945.57
2019-02-06T11:10:25.065Z,945.57
2019-02-06T11:11:25.512Z,945.56
2019-02-06T11:12:26.503Z,945.55
2019-02-06T11:13:27.338Z,945.54
2019-02-06T11:14:27.804Z,945.53
2019-02-06T11:15:28.540Z,945.53
2019-02-06T11:16:29.290Z,945.55
2019-02-06T11:17:30.415Z,945.5
2019-02-06T11:18:31.826Z,945.51
2019-02-06T11:19:32.540Z,945.51
2019-02-06T11:20:32.979Z,945.5
2019-02-06T11:21:33.491Z,945.49
2019-02-06T11:22:33.925Z,945.45
2019-02-06T11:23:34.921Z,945.41
2019-02-06T11:24:36.449Z,945.36
2019-02-06T11:25:37.592Z,945.37
2019-02-06T11:26:39.717Z,945.35
2019-02-06T11:26:50.847Z,945.34
2019-02-06T11:27:03.802Z,945.36
2019-02-06T11:27:15.710Z,945.34
2019-02-06T11:28:15.784Z,945.35
2019-02-06T11:29:16.062Z,945.34
2019-02-06T11:30:17.221Z,945.36
2019-02-06T11:31:17.823Z,945.3
2019-02-06T11:32:19.751Z,945.33
2019-02-06T11:32:30.308Z,945.32
2019-02-06T11:32:43.528Z,945.31
2019-02-06T11:33:43.144Z,945.3
2019-02-06T11:34:44.574Z,945.32
2019-02-06T11:35:45.290Z,945.29
2019-02-06T11:36:46.336Z,945.29
2019-02-06T11:37:48.973Z,945.32
2019-02-06T11:38:50.692Z,945.24
2019-02-06T11:39:03.317Z,945.29
2019-02-06T11:40:03.548Z,945.24
2019-02-06T11:41:03.780Z,945.28
2019-02-06T11:42:04.219Z,945.18
2019-02-06T11:43:05.102Z,945.13
2019-02-06T11:44:05.758Z,945.15
2019-02-06T11:45:06.515Z,945.14
2019-02-06T11:46:10.393Z,945.11
2019-02-06T11:46:19.891Z,945.11
2019-02-06T11:46:31.548Z,945.12
2019-02-06T11:46:43.757Z,945.14
2019-02-06T11:46:56.898Z,945.16
2019-02-06T11:47:56.755Z,945.09
2019-02-06T11:48:57.778Z,945.08
2019-02-06T11:49:58.233Z,944.99
2019-02-06T11:50:59.071Z,945
2019-02-06T11:51:59.391Z,944.97
2019-02-06T11:52:59.826Z,944.96
2019-02-06T11:54:00.323Z,944.93
2019-02-06T11:55:01.130Z,944.91
2019-02-06T11:56:01.705Z,944.87
2019-02-06T11:57:02.138Z,944.85
2019-02-06T11:58:03.140Z,944.84
2019-02-06T11:59:04.562Z,944.81
2019-02-06T12:00:05.708Z,944.8
2019-02-06T12:01:06.140Z,944.77
2019-02-06T12:02:06.743Z,944.74
2019-02-06T12:03:07.583Z,944.72
2019-02-06T12:04:08.245Z,944.72
2019-02-06T12:05:08.903Z,944.68
2019-02-06T12:06:09.877Z,944.63
2019-02-06T12:07:11.211Z,944.66
2019-02-06T12:08:13.352Z,944.66
2019-02-06T12:09:14.186Z,944.65
2019-02-06T12:10:15.676Z,944.62
2019-02-06T12:11:16.666Z,944.64
2019-02-06T12:12:17.342Z,944.61
2019-02-06T12:13:17.606Z,944.59
2019-02-06T12:14:18.202Z,944.6
2019-02-06T12:15:18.834Z,944.58
2019-02-06T12:16:20.603Z,944.55
2019-02-06T12:17:21.908Z,944.55
2019-02-06T12:18:23.832Z,944.54
2019-02-06T12:19:25.321Z,944.49
2019-02-06T12:20:25.776Z,944.53
2019-02-06T12:21:26.779Z,944.5